Overview Statistics Trail Chart Weather Telemetry Raw packets
 

This is the latest recevied weather packets stored in our database for station/object KA1AL. If no packets are shown the sender has not sent any weather packets the latest 10 day(s).

<< 45 46 47 48 49 50 51 >>
Time Temp. Humidity Pressure Rain* Wind** Luminosity Snow
1777383304 10.56° C 60% 1023.5 hPa 0 mm - 599 W/m² -
1777383000 10.56° C 58% 1023.3 hPa 0 mm - 596 W/m² -
1777382696 9.44° C 61% 1023.6 hPa 0 mm - 596 W/m² -
1777382396 8.89° C 61% 1023.7 hPa 0 mm - 584 W/m² -
1777382088 9.44° C 59% 1023.5 hPa 0 mm - 567 W/m² -
1777381785 9.44° C 60% 1023.3 hPa 0 mm - 540 W/m² -
1777381484 8.89° C 61% 1023.1 hPa 0 mm - 495 W/m² -
1777381181 8.89° C 62% 1023.3 hPa 0 mm - 451 W/m² -
1777380878 8.33° C 64% 1023.7 hPa 0 mm - 433 W/m² -
1777380575 8.33° C 63% 1023.7 hPa 0 mm - 413 W/m² -
1777380271 8.33° C 67% 1023.8 hPa 0 mm - 386 W/m² -
1777379967 7.78° C 66% 1023.9 hPa 0 mm - 371 W/m² -
1777379663 7.78° C 67% 1023.6 hPa 0 mm - 355 W/m² -
1777379359 7.78° C 68% 1023.7 hPa 0 mm - 337 W/m² -
1777379055 6.67° C 73% 1023.6 hPa 0 mm - 55 W/m² -
1777378749 6.67° C 71% 1023.8 hPa 0 mm - 161 W/m² -
1777378447 6.11° C 70% 1023.9 hPa 0 mm - 287 W/m² -
1777378141 6.11° C 72% 1023.7 hPa 0 mm - 270 W/m² -
1777377835 6.11° C 72% 1023.9 hPa 0 mm - 52 W/m² -
1777377535 5.56° C 74% 1023.9 hPa 0 mm - 61 W/m² -
1777377230 6.11° C 74% 1023.9 hPa 0 mm - 49 W/m² -
1777376928 5.56° C 77% 1023.8 hPa 0 mm - 49 W/m² -
1777376624 5.56° C 76% 1023.7 hPa 0 mm - 160 W/m² -
1777376322 5° C 76% 1023.6 hPa 0 mm - 46 W/m² -
1777376017 5° C 77% 1023.7 hPa 0 mm - 114 W/m² -

* Rain latest hour (hover to see other rain measurements)
** Current wind speed in m/s (hover to see current wind gust speed)